sensor_id;sensor_type;location;lat;lon;timestamp;temperature;humidity
53645;DHT22;39547;45.554;12.068;2023-02-01T00:01:48;2.70;88.10
53645;DHT22;39547;45.554;12.068;2023-02-01T00:07:50;2.70;88.10
53645;DHT22;39547;45.554;12.068;2023-02-01T00:13:52;2.70;88.10
53645;DHT22;39547;45.554;12.068;2023-02-01T00:19:53;2.60;88.10
53645;DHT22;39547;45.554;12.068;2023-02-01T00:25:55;2.60;88.10
53645;DHT22;39547;45.554;12.068;2023-02-01T00:31:56;2.50;87.90
53645;DHT22;39547;45.554;12.068;2023-02-01T00:37:57;2.50;87.50
53645;DHT22;39547;45.554;12.068;2023-02-01T00:44:00;2.40;87.60
53645;DHT22;39547;45.554;12.068;2023-02-01T00:50:02;2.30;88.00
53645;DHT22;39547;45.554;12.068;2023-02-01T00:56:05;2.30;88.20
53645;DHT22;39547;45.554;12.068;2023-02-01T01:02:06;2.30;88.20
53645;DHT22;39547;45.554;12.068;2023-02-01T01:08:07;2.20;87.70
53645;DHT22;39547;45.554;12.068;2023-02-01T01:14:09;2.20;88.10
53645;DHT22;39547;45.554;12.068;2023-02-01T01:20:11;2.20;88.00
53645;DHT22;39547;45.554;12.068;2023-02-01T01:26:22;2.10;87.50
53645;DHT22;39547;45.554;12.068;2023-02-01T01:32:23;2.00;87.80
53645;DHT22;39547;45.554;12.068;2023-02-01T01:38:25;2.10;87.50
53645;DHT22;39547;45.554;12.068;2023-02-01T01:51:10;2.20;88.00
53645;DHT22;39547;45.554;12.068;2023-02-01T01:57:19;2.20;88.20
53645;DHT22;39547;45.554;12.068;2023-02-01T02:03:42;2.20;88.20
53645;DHT22;39547;45.554;12.068;2023-02-01T02:09:44;2.20;88.30
53645;DHT22;39547;45.554;12.068;2023-02-01T02:22:49;2.40;88.60
53645;DHT22;39547;45.554;12.068;2023-02-01T02:35:50;2.40;88.50
53645;DHT22;39547;45.554;12.068;2023-02-01T02:42:01;2.40;88.40
53645;DHT22;39547;45.554;12.068;2023-02-01T02:48:36;2.30;88.10
53645;DHT22;39547;45.554;12.068;2023-02-01T02:54:45;2.20;88.00
53645;DHT22;39547;45.554;12.068;2023-02-01T03:00:50;2.10;87.30
53645;DHT22;39547;45.554;12.068;2023-02-01T03:07:53;1.90;87.70
53645;DHT22;39547;45.554;12.068;2023-02-01T03:14:00;1.90;87.70
53645;DHT22;39547;45.554;12.068;2023-02-01T03:20:03;1.70;87.50
53645;DHT22;39547;45.554;12.068;2023-02-01T03:26:09;1.70;87.90
53645;DHT22;39547;45.554;12.068;2023-02-01T03:32:12;1.70;87.80
53645;DHT22;39547;45.554;12.068;2023-02-01T03:45:03;1.70;87.90
53645;DHT22;39547;45.554;12.068;2023-02-01T03:51:06;1.70;87.70
53645;DHT22;39547;45.554;12.068;2023-02-01T03:57:12;1.70;87.80
53645;DHT22;39547;45.554;12.068;2023-02-01T04:03:15;1.60;87.80
53645;DHT22;39547;45.554;12.068;2023-02-01T04:09:16;1.50;87.50
53645;DHT22;39547;45.554;12.068;2023-02-01T04:15:18;1.50;88.00
53645;DHT22;39547;45.554;12.068;2023-02-01T04:21:19;1.60;88.30
53645;DHT22;39547;45.554;12.068;2023-02-01T04:27:21;1.70;88.30
53645;DHT22;39547;45.554;12.068;2023-02-01T04:33:23;1.80;88.40
53645;DHT22;39547;45.554;12.068;2023-02-01T04:39:24;2.00;88.00
53645;DHT22;39547;45.554;12.068;2023-02-01T04:45:26;1.90;86.50
53645;DHT22;39547;45.554;12.068;2023-02-01T04:51:27;2.00;87.40
53645;DHT22;39547;45.554;12.068;2023-02-01T04:57:29;2.00;87.00
53645;DHT22;39547;45.554;12.068;2023-02-01T05:03:34;2.10;87.70
53645;DHT22;39547;45.554;12.068;2023-02-01T05:09:36;2.10;88.20
53645;DHT22;39547;45.554;12.068;2023-02-01T05:15:37;2.20;87.80
53645;DHT22;39547;45.554;12.068;2023-02-01T05:21:38;2.10;87.10
53645;DHT22;39547;45.554;12.068;2023-02-01T05:27:40;2.20;88.00
53645;DHT22;39547;45.554;12.068;2023-02-01T05:33:42;2.20;87.80
53645;DHT22;39547;45.554;12.068;2023-02-01T05:39:43;2.20;86.70
53645;DHT22;39547;45.554;12.068;2023-02-01T05:45:45;2.20;87.30
53645;DHT22;39547;45.554;12.068;2023-02-01T05:51:46;2.30;87.80
53645;DHT22;39547;45.554;12.068;2023-02-01T05:57:48;2.30;87.60
53645;DHT22;39547;45.554;12.068;2023-02-01T06:03:49;2.40;87.80
53645;DHT22;39547;45.554;12.068;2023-02-01T06:09:51;2.50;88.10
53645;DHT22;39547;45.554;12.068;2023-02-01T06:15:52;2.50;87.80
53645;DHT22;39547;45.554;12.068;2023-02-01T06:21:54;2.50;88.30
53645;DHT22;39547;45.554;12.068;2023-02-01T06:27:55;2.50;88.40
53645;DHT22;39547;45.554;12.068;2023-02-01T06:33:56;2.60;88.60
53645;DHT22;39547;45.554;12.068;2023-02-01T06:39:58;2.60;88.60
53645;DHT22;39547;45.554;12.068;2023-02-01T06:46:01;2.70;88.70
53645;DHT22;39547;45.554;12.068;2023-02-01T06:52:03;2.70;88.40
53645;DHT22;39547;45.554;12.068;2023-02-01T06:58:05;2.60;88.10
53645;DHT22;39547;45.554;12.068;2023-02-01T07:04:06;2.50;88.20
53645;DHT22;39547;45.554;12.068;2023-02-01T07:10:08;2.50;88.60
53645;DHT22;39547;45.554;12.068;2023-02-01T07:16:13;2.50;87.90
53645;DHT22;39547;45.554;12.068;2023-02-01T07:22:18;2.40;88.20
53645;DHT22;39547;45.554;12.068;2023-02-01T07:28:19;2.40;87.30
53645;DHT22;39547;45.554;12.068;2023-02-01T07:34:20;2.40;88.00
53645;DHT22;39547;45.554;12.068;2023-02-01T07:40:22;2.40;88.20
53645;DHT22;39547;45.554;12.068;2023-02-01T07:46:29;2.50;88.70
53645;DHT22;39547;45.554;12.068;2023-02-01T07:52:30;2.60;87.80
53645;DHT22;39547;45.554;12.068;2023-02-01T07:58:32;2.70;87.90
53645;DHT22;39547;45.554;12.068;2023-02-01T08:04:33;2.80;87.10
53645;DHT22;39547;45.554;12.068;2023-02-01T08:10:35;2.90;87.20
53645;DHT22;39547;45.554;12.068;2023-02-01T08:16:36;3.00;88.00
53645;DHT22;39547;45.554;12.068;2023-02-01T08:22:40;3.20;88.10
53645;DHT22;39547;45.554;12.068;2023-02-01T08:28:44;3.30;88.10
53645;DHT22;39547;45.554;12.068;2023-02-01T08:34:45;3.40;88.20
53645;DHT22;39547;45.554;12.068;2023-02-01T08:40:47;3.50;88.60
53645;DHT22;39547;45.554;12.068;2023-02-01T08:46:48;3.70;88.80
53645;DHT22;39547;45.554;12.068;2023-02-01T08:52:50;3.70;89.00
53645;DHT22;39547;45.554;12.068;2023-02-01T08:58:51;3.90;88.90
53645;DHT22;39547;45.554;12.068;2023-02-01T09:04:53;4.00;89.10
53645;DHT22;39547;45.554;12.068;2023-02-01T09:10:59;4.20;88.30
53645;DHT22;39547;45.554;12.068;2023-02-01T09:17:00;4.40;88.10
53645;DHT22;39547;45.554;12.068;2023-02-01T09:23:02;4.60;86.30
53645;DHT22;39547;45.554;12.068;2023-02-01T09:29:04;4.70;87.50
53645;DHT22;39547;45.554;12.068;2023-02-01T09:35:11;5.00;88.20
53645;DHT22;39547;45.554;12.068;2023-02-01T09:41:25;5.20;87.80
53645;DHT22;39547;45.554;12.068;2023-02-01T09:47:29;5.40;88.20
53645;DHT22;39547;45.554;12.068;2023-02-01T09:53:37;5.60;87.30
53645;DHT22;39547;45.554;12.068;2023-02-01T09:59:42;5.70;87.30
53645;DHT22;39547;45.554;12.068;2023-02-01T10:18:44;6.20;86.30
53645;DHT22;39547;45.554;12.068;2023-02-01T10:24:53;6.50;85.60
53645;DHT22;39547;45.554;12.068;2023-02-01T10:31:01;6.70;85.50
53645;DHT22;39547;45.554;12.068;2023-02-01T10:43:23;7.10;83.10
53645;DHT22;39547;45.554;12.068;2023-02-01T10:49:37;7.30;82.40
53645;DHT22;39547;45.554;12.068;2023-02-01T10:55:40;7.40;81.60
53645;DHT22;39547;45.554;12.068;2023-02-01T11:01:44;7.60;82.30
53645;DHT22;39547;45.554;12.068;2023-02-01T11:07:51;7.70;82.80
53645;DHT22;39547;45.554;12.068;2023-02-01T11:14:01;7.80;78.00
53645;DHT22;39547;45.554;12.068;2023-02-01T11:20:18;8.00;78.90
53645;DHT22;39547;45.554;12.068;2023-02-01T11:26:23;8.10;79.70
53645;DHT22;39547;45.554;12.068;2023-02-01T11:32:25;8.30;80.90
53645;DHT22;39547;45.554;12.068;2023-02-01T11:38:30;8.50;81.80
53645;DHT22;39547;45.554;12.068;2023-02-01T11:44:35;8.70;82.00
53645;DHT22;39547;45.554;12.068;2023-02-01T11:57:20;8.90;80.70
53645;DHT22;39547;45.554;12.068;2023-02-01T12:16:09;8.50;82.30
53645;DHT22;39547;45.554;12.068;2023-02-01T12:22:22;8.70;83.20
53645;DHT22;39547;45.554;12.068;2023-02-01T12:28:30;8.80;83.40
53645;DHT22;39547;45.554;12.068;2023-02-01T12:47:42;9.30;82.00
53645;DHT22;39547;45.554;12.068;2023-02-01T12:53:55;9.50;81.30
53645;DHT22;39547;45.554;12.068;2023-02-01T13:12:28;9.80;78.00
53645;DHT22;39547;45.554;12.068;2023-02-01T13:18:36;9.70;75.80
53645;DHT22;39547;45.554;12.068;2023-02-01T13:24:45;9.70;75.60
53645;DHT22;39547;45.554;12.068;2023-02-01T13:37:27;9.70;75.80
53645;DHT22;39547;45.554;12.068;2023-02-01T13:43:32;9.70;74.70
53645;DHT22;39547;45.554;12.068;2023-02-01T13:49:38;9.70;76.30
53645;DHT22;39547;45.554;12.068;2023-02-01T13:55:44;9.80;75.80
53645;DHT22;39547;45.554;12.068;2023-02-01T14:01:47;9.80;75.50
53645;DHT22;39547;45.554;12.068;2023-02-01T14:20:42;9.50;76.00
53645;DHT22;39547;45.554;12.068;2023-02-01T14:26:54;9.50;77.40
53645;DHT22;39547;45.554;12.068;2023-02-01T14:32:57;9.40;78.10
53645;DHT22;39547;45.554;12.068;2023-02-01T14:38:59;9.40;77.60
53645;DHT22;39547;45.554;12.068;2023-02-01T14:51:21;9.20;77.80
53645;DHT22;39547;45.554;12.068;2023-02-01T14:57:25;9.20;77.10
53645;DHT22;39547;45.554;12.068;2023-02-01T15:09:46;9.20;78.50
53645;DHT22;39547;45.554;12.068;2023-02-01T15:16:08;9.00;77.90
53645;DHT22;39547;45.554;12.068;2023-02-01T15:22:18;8.90;78.00
53645;DHT22;39547;45.554;12.068;2023-02-01T15:28:20;8.80;78.50
53645;DHT22;39547;45.554;12.068;2023-02-01T15:34:22;8.70;78.90
53645;DHT22;39547;45.554;12.068;2023-02-01T15:40:26;8.60;79.50
53645;DHT22;39547;45.554;12.068;2023-02-01T15:52:41;8.20;80.40
53645;DHT22;39547;45.554;12.068;2023-02-01T16:12:52;7.70;81.60
53645;DHT22;39547;45.554;12.068;2023-02-01T16:18:58;7.50;82.00
53645;DHT22;39547;45.554;12.068;2023-02-01T16:25:00;7.30;82.40
53645;DHT22;39547;45.554;12.068;2023-02-01T16:31:03;7.20;82.70
53645;DHT22;39547;45.554;12.068;2023-02-01T16:37:04;7.00;83.10
53645;DHT22;39547;45.554;12.068;2023-02-01T16:43:20;6.80;83.40
53645;DHT22;39547;45.554;12.068;2023-02-01T16:49:24;6.70;83.70
53645;DHT22;39547;45.554;12.068;2023-02-01T16:55:26;6.60;84.00
53645;DHT22;39547;45.554;12.068;2023-02-01T17:01:28;6.50;84.20
53645;DHT22;39547;45.554;12.068;2023-02-01T17:07:30;6.40;84.50
53645;DHT22;39547;45.554;12.068;2023-02-01T17:13:32;6.30;84.60
53645;DHT22;39547;45.554;12.068;2023-02-01T17:19:34;6.20;84.90
53645;DHT22;39547;45.554;12.068;2023-02-01T17:25:36;6.20;85.10
53645;DHT22;39547;45.554;12.068;2023-02-01T17:31:40;6.00;85.30
53645;DHT22;39547;45.554;12.068;2023-02-01T17:37:42;5.90;85.40
53645;DHT22;39547;45.554;12.068;2023-02-01T17:43:44;5.90;85.50
53645;DHT22;39547;45.554;12.068;2023-02-01T17:49:45;5.80;85.60
53645;DHT22;39547;45.554;12.068;2023-02-01T17:55:50;5.70;85.70
53645;DHT22;39547;45.554;12.068;2023-02-01T18:01:52;5.60;85.90
53645;DHT22;39547;45.554;12.068;2023-02-01T18:07:53;5.60;86.10
53645;DHT22;39547;45.554;12.068;2023-02-01T18:13:55;5.50;86.10
53645;DHT22;39547;45.554;12.068;2023-02-01T18:19:56;5.50;86.30
53645;DHT22;39547;45.554;12.068;2023-02-01T18:25:58;5.40;86.40
53645;DHT22;39547;45.554;12.068;2023-02-01T18:32:00;5.30;86.40
53645;DHT22;39547;45.554;12.068;2023-02-01T18:38:02;5.20;86.50
53645;DHT22;39547;45.554;12.068;2023-02-01T18:44:04;5.20;86.40
53645;DHT22;39547;45.554;12.068;2023-02-01T18:50:05;5.20;86.60
53645;DHT22;39547;45.554;12.068;2023-02-01T18:56:09;5.10;86.70
53645;DHT22;39547;45.554;12.068;2023-02-01T19:02:12;5.10;86.80
53645;DHT22;39547;45.554;12.068;2023-02-01T19:08:13;5.00;86.80
53645;DHT22;39547;45.554;12.068;2023-02-01T19:14:15;5.00;86.90
53645;DHT22;39547;45.554;12.068;2023-02-01T19:20:18;5.00;86.90
53645;DHT22;39547;45.554;12.068;2023-02-01T19:26:20;4.80;86.80
53645;DHT22;39547;45.554;12.068;2023-02-01T19:32:22;4.70;86.70
53645;DHT22;39547;45.554;12.068;2023-02-01T19:38:24;4.70;86.90
53645;DHT22;39547;45.554;12.068;2023-02-01T19:44:27;4.60;86.70
53645;DHT22;39547;45.554;12.068;2023-02-01T19:50:28;4.50;86.60
53645;DHT22;39547;45.554;12.068;2023-02-01T19:56:29;4.40;86.80
53645;DHT22;39547;45.554;12.068;2023-02-01T20:02:31;4.30;86.90
53645;DHT22;39547;45.554;12.068;2023-02-01T20:08:33;4.30;87.10
53645;DHT22;39547;45.554;12.068;2023-02-01T20:14:34;4.20;87.00
53645;DHT22;39547;45.554;12.068;2023-02-01T20:20:35;4.20;86.90
53645;DHT22;39547;45.554;12.068;2023-02-01T20:26:37;4.10;87.00
53645;DHT22;39547;45.554;12.068;2023-02-01T20:32:39;4.10;87.20
53645;DHT22;39547;45.554;12.068;2023-02-01T20:38:40;4.00;87.00
53645;DHT22;39547;45.554;12.068;2023-02-01T20:44:41;4.00;87.00
53645;DHT22;39547;45.554;12.068;2023-02-01T20:50:43;4.00;87.20
53645;DHT22;39547;45.554;12.068;2023-02-01T20:56:44;3.90;87.20
53645;DHT22;39547;45.554;12.068;2023-02-01T21:02:47;3.90;86.90
53645;DHT22;39547;45.554;12.068;2023-02-01T21:08:49;3.80;87.00
53645;DHT22;39547;45.554;12.068;2023-02-01T21:14:50;3.70;87.00
53645;DHT22;39547;45.554;12.068;2023-02-01T21:20:52;3.70;87.10
53645;DHT22;39547;45.554;12.068;2023-02-01T21:26:53;3.70;87.20
53645;DHT22;39547;45.554;12.068;2023-02-01T21:32:55;3.70;87.20
53645;DHT22;39547;45.554;12.068;2023-02-01T21:38:56;3.50;86.80
53645;DHT22;39547;45.554;12.068;2023-02-01T21:45:03;3.50;86.60
53645;DHT22;39547;45.554;12.068;2023-02-01T21:51:05;3.40;87.20
53645;DHT22;39547;45.554;12.068;2023-02-01T21:57:09;3.40;87.10
53645;DHT22;39547;45.554;12.068;2023-02-01T22:03:13;3.40;87.20
53645;DHT22;39547;45.554;12.068;2023-02-01T22:09:20;3.40;86.90
53645;DHT22;39547;45.554;12.068;2023-02-01T22:15:22;3.20;87.00
53645;DHT22;39547;45.554;12.068;2023-02-01T22:21:24;3.20;87.10
53645;DHT22;39547;45.554;12.068;2023-02-01T22:27:27;3.20;87.20
53645;DHT22;39547;45.554;12.068;2023-02-01T22:33:29;3.20;87.20
53645;DHT22;39547;45.554;12.068;2023-02-01T22:39:30;3.10;87.30
53645;DHT22;39547;45.554;12.068;2023-02-01T22:45:32;3.10;87.40
53645;DHT22;39547;45.554;12.068;2023-02-01T22:51:33;3.10;87.30
53645;DHT22;39547;45.554;12.068;2023-02-01T22:57:35;3.10;87.60
53645;DHT22;39547;45.554;12.068;2023-02-01T23:03:36;3.10;87.50
53645;DHT22;39547;45.554;12.068;2023-02-01T23:09:38;3.00;87.40
53645;DHT22;39547;45.554;12.068;2023-02-01T23:15:40;2.90;86.90
53645;DHT22;39547;45.554;12.068;2023-02-01T23:21:41;2.80;86.70
53645;DHT22;39547;45.554;12.068;2023-02-01T23:27:43;2.80;87.10
53645;DHT22;39547;45.554;12.068;2023-02-01T23:33:45;2.80;87.40
53645;DHT22;39547;45.554;12.068;2023-02-01T23:39:49;2.70;87.00
53645;DHT22;39547;45.554;12.068;2023-02-01T23:45:56;2.60;86.70
53645;DHT22;39547;45.554;12.068;2023-02-01T23:51:58;2.50;86.60
53645;DHT22;39547;45.554;12.068;2023-02-01T23:57:59;2.40;86.80
